Sewanee, Tennessee
Current Conditions -  °F | °C
As of 11:55 PM on Tuesday 25 Nov 2014 (Local Time) from KBGF Reporting Station
Overcast Overcast  
Wind Chill: 39°   Ceiling: 11000
Heat Index: 39°   Visibility: 10mi
Dew Point: 28°   Wind: 3mph
Humidity: 65%   Direction: 350°N
Pressure: 30.09"   Gusts: NA
Location:  35.19°N, 85.92°W
Report Text: KBGF 260555Z AUTO 35003KT 10SM SCT075 OVC110 04/M02 A3009 RMK
Loading
Personal Weather Stations






























Interactive Weather Map New forecast layout! Learn more

10-Day Weather Forecast

Advertisements
Track Severe Weather on mobile